Time;durP1;ratioP1;P1;durP2;ratioP2;P2;SDS_P1;SDS_P2;PMS_P1;PMS_P2;Temp;Humidity;BMP_temperature;BMP_pressure;BME280_temperature;BME280_humidity;BME280_pressure;Samples;Min_cycle;Max_cycle;Signal;HPM_P1;HPM_P2
2023/08/20 00:01:57;;;;;;;13.60;8.90;;;19.60;99.90;;;-144.05;98.61;56999.63;6184692;23;20005;-81
2023/08/20 00:04:27;;;;;;;13.23;8.55;;;16.60;99.90;;;-144.05;98.39;56984.78;6184946;23;20419;-83
2023/08/20 00:06:54;;;;;;;13.90;8.80;;;16.40;99.90;;;-144.05;98.47;56967.78;6185606;23;20028;-84
2023/08/20 00:09:19;;;;;;;14.30;8.52;;;19.50;99.90;;;-144.05;98.57;56976.28;6158456;23;20005;-84
2023/08/20 00:11:45;;;;;;;12.13;8.88;;;19.80;99.90;;;-144.05;98.27;56972.03;6158675;23;20526;-83
2023/08/20 00:14:17;;;;;;;15.02;8.88;;;18.30;99.90;;;-144.05;98.38;56969.91;6158472;23;20008;-82
2023/08/20 00:16:46;;;;;;;10.82;8.57;;;19.10;99.90;;;-144.05;98.42;56986.91;6185526;23;20008;-82
2023/08/20 00:19:12;;;;;;;11.75;7.78;;;18.10;99.90;;;-144.05;98.49;56972.03;6185224;23;19997;-82
2023/08/20 00:21:44;;;;;;;10.52;8.32;;;19.30;99.90;;;-144.05;98.64;56959.28;6158840;23;20431;-81
2023/08/20 00:24:12;;;;;;;14.55;9.77;;;19.50;99.90;;;-144.05;98.69;56982.66;6158493;23;20588;-83
2023/08/20 00:26:38;;;;;;;10.52;8.65;;;19.80;99.90;;;-144.05;98.59;56982.66;6184896;23;20008;-82
2023/08/20 00:29:04;;;;;;;16.70;8.38;;;18.10;99.90;;;-144.05;98.45;56972.03;6184613;23;20016;-84
2023/08/20 00:31:30;;;;;;;9.82;7.93;;;19.40;99.90;;;-144.05;98.56;56946.53;6158667;23;20005;-82
2023/08/20 00:33:56;;;;;;;9.02;7.95;;;19.70;99.90;;;-144.05;98.65;56984.78;6185130;23;20052;-82
2023/08/20 00:36:22;;;;;;;11.88;8.70;;;;;;;-144.05;98.50;56980.53;6158690;23;20391;-82
2023/08/20 00:38:48;;;;;;;13.35;9.05;;;;;;;-144.05;98.65;56967.78;6158146;23;20005;-82
2023/08/20 00:41:14;;;;;;;13.68;9.82;;;18.80;99.90;;;-144.05;98.74;56963.53;6158664;23;20478;-82
2023/08/20 00:43:40;;;;;;;11.82;9.30;;;19.20;99.90;;;-144.05;98.81;56984.78;6158754;23;20020;-83
2023/08/20 00:46:06;;;;;;;12.65;9.18;;;18.20;99.90;;;-144.05;98.70;57001.75;6185174;23;20005;-82
2023/08/20 00:48:32;;;;;;;11.88;8.95;;;16.00;99.90;;;-144.05;98.70;56974.16;6158336;23;20382;-81
2023/08/20 00:50:58;;;;;;;14.90;10.18;;;19.10;99.90;;;-144.05;98.58;56955.03;6184722;23;20001;-81
2023/08/20 00:53:24;;;;;;;13.20;9.15;;;19.00;99.90;;;-144.05;98.65;57001.75;6158106;23;20005;-82
2023/08/20 00:55:50;;;;;;;13.55;9.30;;;;;;;-144.05;98.65;56989.00;6158328;23;20339;-82
2023/08/20 00:58:16;;;;;;;11.18;8.48;;;19.50;99.90;;;-144.05;98.54;56978.41;6184781;23;20020;-82
2023/08/20 01:00:42;;;;;;;11.82;8.65;;;;;;;-144.05;98.46;56967.78;6185465;23;20001;-82
2023/08/20 01:03:09;;;;;;;11.40;8.73;;;;;;;-144.05;98.52;56946.53;6185811;23;20005;-83
2023/08/20 01:05:53;;;;;;;9.98;7.38;;;19.70;99.90;;;-144.05;98.64;56980.53;6185703;23;20012;-82
2023/08/20 01:08:41;;;;;;;14.90;9.63;;;19.60;99.90;;;-144.05;98.68;56978.41;6187131;23;20037;-84
2023/08/20 01:11:24;;;;;;;14.80;10.60;;;19.20;99.90;;;-144.05;98.56;56950.78;6187599;23;20076;-83
2023/08/20 01:13:50;;;;;;;13.98;10.23;;;19.10;99.90;;;-144.05;98.67;56974.16;6160594;23;20394;-83
2023/08/20 01:16:16;;;;;;;12.15;10.27;;;;;;;-144.05;98.50;56974.16;6187715;23;20033;-82
2023/08/20 01:18:42;;;;;;;11.90;8.70;;;19.00;99.90;;;-144.05;98.75;56984.78;6160445;23;20001;-82
2023/08/20 01:21:56;;;;;;;13.32;9.20;;;17.80;99.90;;;-144.05;98.75;56967.78;6160789;23;20007;-82
2023/08/20 01:24:58;;;;;;;12.75;8.80;;;19.40;99.90;;;-144.05;98.79;56946.53;6187009;23;20008;-82
2023/08/20 01:28:15;;;;;;;12.18;9.55;;;19.30;99.90;;;-144.05;98.96;56980.53;6187321;23;20016;-82
2023/08/20 01:30:43;;;;;;;9.75;8.35;;;19.30;99.90;;;-144.05;98.84;56989.00;6187545;23;20339;-81
2023/08/20 01:33:12;;;;;;;11.93;8.63;;;19.40;99.90;;;-144.05;98.76;56980.53;6187334;23;20001;-80
2023/08/20 01:35:38;;;;;;;11.30;8.40;;;19.20;99.90;;;-144.05;98.94;56984.78;6160074;23;20012;-83
2023/08/20 01:38:04;;;;;;;12.80;8.43;;;19.00;99.90;;;-144.05;98.92;56980.53;6186190;23;20100;-83
2023/08/20 01:40:31;;;;;;;12.82;8.50;;;18.50;99.90;;;-144.05;98.99;56969.91;6186969;23;20001;-82
2023/08/20 01:42:58;;;;;;;13.80;8.23;;;18.20;99.90;;;-144.05;98.81;56976.28;6191913;23;20011;-83
2023/08/20 01:45:24;;;;;;;11.05;8.05;;;;;;;-144.05;98.78;56963.53;6193633;23;20390;-85
2023/08/20 01:47:50;;;;;;;8.75;6.93;;;;;;;-144.05;98.77;56974.16;6190779;23;20433;-85
2023/08/20 01:50:16;;;;;;;8.05;6.90;;;18.60;99.90;;;-144.05;98.68;57001.75;6189289;23;20443;-84
2023/08/20 01:52:42;;;;;;;12.18;7.18;;;17.40;99.90;;;-144.05;98.62;56967.78;6189114;23;20016;-82
2023/08/20 01:55:08;;;;;;;10.80;8.48;;;17.30;99.90;;;-144.05;97.03;56984.78;6186521;23;20009;-82
2023/08/20 01:57:34;;;;;;;13.68;9.00;;;17.40;99.90;;;-144.05;96.47;56976.28;6186348;23;20039;-82
2023/08/20 02:00:00;;;;;;;13.73;10.02;;;19.10;99.90;;;-144.05;96.12;56955.03;6161525;23;20009;-84
2023/08/20 02:02:26;;;;;;;12.45;9.80;;;15.50;99.90;;;-144.05;95.82;56946.53;6163681;23;20534;-83
2023/08/20 02:04:52;;;;;;;11.52;8.75;;;17.50;99.90;;;-144.05;95.96;56982.66;6188760;23;20001;-82
2023/08/20 02:07:18;;;;;;;12.00;8.82;;;;;;;-144.05;96.24;56969.91;6189616;23;20024;-83
2023/08/20 02:09:44;;;;;;;11.18;8.52;;;17.50;99.90;;;-144.05;96.06;56974.16;6188830;23;20009;-83
2023/08/20 02:12:09;;;;;;;14.35;9.98;;;17.50;99.90;;;-144.05;96.13;56955.03;6159519;23;20016;-81
2023/08/20 02:14:36;;;;;;;15.98;10.00;;;;;;;-144.05;96.01;56986.91;6159341;23;20005;-81
2023/08/20 02:17:03;;;;;;;14.65;10.25;;;15.80;99.90;;;-144.05;96.27;56976.28;6158596;23;20036;-82
2023/08/20 02:19:29;;;;;;;14.00;9.73;;;19.30;99.90;;;-144.05;96.05;56984.78;6159334;23;20468;-82
2023/08/20 02:21:55;;;;;;;14.68;9.90;;;17.60;99.90;;;-144.05;96.16;56972.03;6185957;23;20031;-82
2023/08/20 02:24:22;;;;;;;15.05;9.75;;;;;;;-144.05;96.07;56976.28;6186227;23;20001;-82
2023/08/20 02:26:48;;;;;;;16.42;10.55;;;;;;;-144.05;96.26;56959.28;6188482;23;20447;-81
2023/08/20 02:29:14;;;;;;;14.00;9.50;;;17.60;99.90;;;-144.05;96.17;56972.03;6192595;23;20009;-81
2023/08/20 02:31:40;;;;;;;15.77;9.45;;;18.90;99.90;;;-144.05;96.19;56978.41;6186279;23;20004;-80
2023/08/20 02:34:06;;;;;;;10.00;7.50;;;17.50;99.90;;;-144.05;96.03;56984.78;6185899;23;20028;-82
2023/08/20 02:36:31;;;;;;;10.73;8.00;;;17.40;99.90;;;-144.05;96.24;56989.00;6185739;23;20008;-82
2023/08/20 02:38:58;;;;;;;10.00;8.13;;;;;;;-144.05;96.21;56952.91;6159127;23;20013;-81
2023/08/20 02:41:24;;;;;;;8.63;6.80;;;18.50;99.90;;;-144.05;96.16;56969.91;6159647;23;20343;-83
2023/08/20 02:43:49;;;;;;;17.33;9.70;;;18.70;99.90;;;-144.05;96.62;56969.91;6185815;23;20044;-82
2023/08/20 02:46:15;;;;;;;12.73;9.88;;;16.90;99.90;;;-144.05;97.13;56967.78;6186151;23;20009;-82
2023/08/20 02:48:41;;;;;;;14.70;8.70;;;18.20;99.90;;;-144.05;96.31;56961.41;6185552;23;20005;-83
2023/08/20 02:51:07;;;;;;;11.52;8.07;;;;;;;-144.05;96.11;56974.16;6159442;23;20009;-82
2023/08/20 02:53:33;;;;;;;8.70;7.68;;;18.20;99.90;;;-144.05;96.15;56991.13;6159932;23;20083;-82
2023/08/20 02:55:59;;;;;;;15.40;9.52;;;15.10;99.90;;;-144.05;96.26;56986.91;6159836;23;20439;-82
2023/08/20 02:58:25;;;;;;;12.48;9.65;;;;;;;-144.05;96.19;56963.53;6159493;23;20019;-82
2023/08/20 03:00:51;;;;;;;12.70;9.75;;;17.30;99.90;;;-144.05;96.28;56984.78;6186031;23;20011;-82
2023/08/20 03:03:17;;;;;;;11.73;8.35;;;15.30;99.90;;;-144.05;95.98;56965.66;6185273;23;20063;-82
2023/08/20 03:05:43;;;;;;;9.38;7.72;;;;;;;-144.05;95.94;56982.66;6185674;23;20009;-82
2023/08/20 03:08:09;;;;;;;13.75;8.43;;;15.40;99.90;;;-144.05;96.17;56961.41;6185347;23;20001;-82
2023/08/20 03:10:35;;;;;;;11.23;7.78;;;17.40;99.90;;;-144.05;96.06;56972.03;6159603;23;20060;-82
2023/08/20 03:13:02;;;;;;;14.85;10.10;;;18.50;99.90;;;-144.05;96.37;56984.78;6186453;23;20050;-83
2023/08/20 03:15:29;;;;;;;16.98;9.15;;;;;;;-144.05;96.05;56972.03;6159423;23;20012;-82
2023/08/20 03:17:56;;;;;;;15.73;10.75;;;;;;;-144.05;96.31;56974.16;6159386;23;20013;-81
2023/08/20 03:20:22;;;;;;;16.25;12.05;;;;;;;-144.05;96.09;56967.78;6158760;23;20016;-82
2023/08/20 03:22:48;;;;;;;15.05;10.77;;;17.50;99.90;;;-144.05;95.99;56946.53;6185177;23;20009;-82
2023/08/20 03:25:14;;;;;;;21.30;13.82;;;19.10;99.90;;;-144.05;96.08;56995.38;6185341;23;20435;-82
2023/08/20 03:27:41;;;;;;;18.35;11.80;;;15.40;99.90;;;-144.05;96.04;56972.03;6184935;23;20063;-82
2023/08/20 03:30:08;;;;;;;17.58;10.60;;;18.80;99.90;;;-144.05;96.09;56982.66;6185325;23;20005;-83
2023/08/20 03:32:34;;;;;;;13.88;10.32;;;;;;;-144.05;96.41;56986.91;6185365;23;20012;-82
2023/08/20 03:35:01;;;;;;;18.13;11.77;;;;;;;-144.05;96.30;56959.28;6159075;23;20020;-82
2023/08/20 03:37:27;;;;;;;23.60;13.98;;;;;;;-144.05;96.47;56952.91;6184922;23;20453;-82
2023/08/20 03:39:53;;;;;;;29.63;19.52;;;18.60;99.90;;;-144.05;96.76;56967.78;6158390;23;20087;-84
2023/08/20 03:42:20;;;;;;;28.13;17.08;;;;;;;-144.05;96.55;56963.53;6185433;23;20458;-81
2023/08/20 03:44:46;;;;;;;23.08;14.95;;;;;;;-144.05;96.37;56963.53;6185106;23;20092;-83
2023/08/20 03:47:12;;;;;;;21.17;13.45;;;;;;;-144.05;96.42;56974.16;6158223;23;20063;-82
2023/08/20 03:49:38;;;;;;;18.02;11.38;;;;;;;-144.05;96.46;56961.41;6158137;23;20016;-82
2023/08/20 03:52:06;;;;;;;20.55;12.68;;;18.60;99.90;;;-144.05;96.53;56993.25;6184662;23;20447;-81
2023/08/20 03:54:34;;;;;;;27.63;14.80;;;17.60;99.90;;;-144.05;96.64;56982.66;6158684;23;20009;-84
2023/08/20 03:57:00;;;;;;;28.30;15.80;;;17.60;99.90;;;-144.05;96.72;56995.38;6158805;23;20019;-83
2023/08/20 03:59:25;;;;;;;32.13;16.33;;;18.90;99.90;;;-144.05;96.92;56976.28;6158776;23;20401;-82
2023/08/20 04:01:52;;;;;;;22.50;14.88;;;;;;;-144.05;96.89;56989.00;6158796;23;20032;-82
2023/08/20 04:04:18;;;;;;;19.70;13.02;;;;;;;-144.05;97.02;56959.28;6160222;23;20040;-83
2023/08/20 04:06:44;;;;;;;16.38;12.55;;;;;;;-144.05;96.84;56974.16;6159334;23;20001;-82
2023/08/20 04:09:11;;;;;;;18.98;11.93;;;19.60;99.90;;;-144.05;96.77;56978.41;6158786;23;20342;-79
2023/08/20 04:11:36;;;;;;;22.75;14.10;;;17.90;99.90;;;-144.05;96.78;56969.91;6158406;23;20016;-83
2023/08/20 04:14:02;;;;;;;25.77;15.05;;;19.20;99.90;;;-144.05;97.02;56993.25;6158094;23;20013;-83
2023/08/20 04:16:30;;;;;;;39.92;21.17;;;18.10;99.90;;;-144.05;96.92;56999.63;6158598;23;20043;-84
2023/08/20 04:18:56;;;;;;;47.00;23.08;;;19.00;99.90;;;-144.05;96.76;56961.41;6158272;23;20016;-82
2023/08/20 04:21:22;;;;;;;30.33;17.58;;;;;;;-144.05;96.99;56976.28;6158658;23;20390;-83
2023/08/20 04:23:48;;;;;;;28.38;16.33;;;19.00;99.90;;;-144.05;96.93;57012.38;6185173;23;20012;-83
2023/08/20 04:26:14;;;;;;;23.25;14.38;;;17.60;99.90;;;-144.05;96.90;56986.91;6184724;23;20005;-82
2023/08/20 04:31:08;;;;;;;20.88;12.35;;;;;;;-144.05;96.95;56986.91;6186020;23;20076;-85
2023/08/20 04:33:34;;;;;;;30.27;13.70;;;19.80;99.90;;;-144.05;97.07;56982.66;6158740;23;20319;-83
2023/08/20 04:36:00;;;;;;;33.85;16.25;;;18.90;99.90;;;-144.05;97.07;56995.38;6159044;23;20027;-84
2023/08/20 04:38:26;;;;;;;29.13;13.82;;;19.80;99.90;;;-144.05;97.12;56993.25;6185385;23;20004;-82
2023/08/20 04:40:52;;;;;;;67.28;27.40;;;19.60;99.90;;;-144.05;97.15;56976.28;6186400;23;20084;-85
2023/08/20 04:43:18;;;;;;;45.38;20.48;;;19.80;99.90;;;-144.05;97.17;56978.41;6161213;23;20012;-83
2023/08/20 04:45:44;;;;;;;50.40;22.60;;;;;;;-144.05;97.03;56976.28;6189439;23;20029;-84
2023/08/20 04:48:10;;;;;;;58.20;25.13;;;19.70;99.90;;;-144.05;97.25;56967.78;6190476;23;20037;-85
2023/08/20 04:50:36;;;;;;;77.95;34.17;;;18.50;99.90;;;-144.05;97.36;56993.25;6188108;23;20001;-84
2023/08/20 04:53:02;;;;;;;90.22;40.80;;;20.00;99.90;;;-144.05;97.78;56997.50;6188451;23;20054;-86
2023/08/20 04:55:28;;;;;;;103.55;45.78;;;20.50;99.90;;;-144.05;97.65;56989.00;6161159;23;20151;-83
2023/08/20 04:57:54;;;;;;;107.90;47.03;;;;;;;-144.05;98.18;56963.53;6160896;23;20005;-84
2023/08/20 05:00:22;;;;;;;74.63;33.05;;;20.40;99.90;;;-144.05;97.66;57029.38;6160250;23;20005;-83
2023/08/20 05:02:48;;;;;;;113.57;46.45;;;17.80;99.90;;;-144.05;97.78;57006.00;6161121;23;20104;-85
2023/08/20 05:05:14;;;;;;;80.70;36.65;;;17.30;99.90;;;-144.05;97.67;56974.16;6187710;23;20013;-85
2023/08/20 05:07:41;;;;;;;50.38;26.42;;;;;;;-144.05;97.32;56978.41;6188932;23;20395;-83
2023/08/20 05:10:08;;;;;;;55.88;25.15;;;17.10;99.90;;;-144.05;97.08;56976.28;6162687;23;20037;-84
2023/08/20 05:12:35;;;;;;;55.10;25.08;;;19.00;99.90;;;-144.05;96.98;57023.00;6187918;23;20028;-85
2023/08/20 05:15:02;;;;;;;53.00;26.58;;;;;;;-144.05;96.82;56991.13;6191505;23;20001;-85
2023/08/20 05:17:27;;;;;;;41.17;20.40;;;17.10;99.90;;;-144.05;96.97;57006.00;6167029;23;20009;-83
2023/08/20 05:19:53;;;;;;;50.17;21.60;;;20.80;99.90;;;-144.05;96.97;57006.00;6167416;23;20097;-85
2023/08/20 05:22:20;;;;;;;52.25;23.95;;;19.70;99.90;;;-144.05;96.80;56972.03;6167642;23;20026;-83
2023/08/20 05:24:46;;;;;;;61.15;27.48;;;20.10;99.90;;;-144.05;96.58;57008.13;6167387;23;20012;-84
2023/08/20 05:27:16;;;;;;;65.70;29.33;;;19.00;99.90;;;-144.05;96.57;56991.13;6167347;23;20092;-87
2023/08/20 05:29:43;;;;;;;65.38;30.13;;;17.20;99.90;;;-144.05;96.65;56997.50;6167687;23;20025;-85
2023/08/20 05:32:09;;;;;;;62.63;28.98;;;17.30;99.90;;;-144.05;96.44;56989.00;6167003;23;20354;-83
2023/08/20 05:34:36;;;;;;;60.97;27.23;;;17.10;99.90;;;-144.05;96.38;57016.63;6193787;23;20028;-86
2023/08/20 05:37:03;;;;;;;58.78;26.85;;;;;;;-144.05;96.54;56978.41;6167108;23;20092;-86
2023/08/20 05:39:37;;;;;;;58.20;26.75;;;19.10;99.90;;;-144.05;96.60;57006.00;6193177;23;20009;-86
2023/08/20 05:42:04;;;;;;;54.95;25.98;;;17.00;99.90;;;-144.05;96.33;56997.50;6165374;23;20017;-84
2023/08/20 05:44:31;;;;;;;43.40;22.35;;;;;;;-144.05;96.14;56991.13;6166591;23;20005;-84
2023/08/20 05:46:58;;;;;;;51.22;22.55;;;;;;;-144.05;96.10;56976.28;6167499;23;20008;-86
2023/08/20 05:49:24;;;;;;;41.78;21.15;;;;;;;-144.05;96.13;56989.00;6167358;23;20009;-84
2023/08/20 05:51:50;;;;;;;46.80;22.45;;;20.70;99.90;;;-144.05;96.16;57014.50;6168108;23;20040;-86
2023/08/20 05:54:16;;;;;;;48.10;22.70;;;20.90;99.90;;;-144.05;96.19;57020.88;6171020;23;20378;-86
2023/08/20 05:56:42;;;;;;;60.40;29.75;;;21.10;99.90;;;-144.05;96.21;57006.00;6168838;23;20009;-85
2023/08/20 05:59:08;;;;;;;63.25;32.85;;;21.10;99.90;;;-144.05;96.43;56995.38;6170848;23;20024;-86
2023/08/20 06:01:34;;;;;;;56.22;26.60;;;17.80;99.90;;;-144.05;97.33;56984.78;6170207;23;20037;-85
2023/08/20 06:04:01;;;;;;;69.35;31.15;;;20.90;99.90;;;-144.05;98.52;57006.00;6169016;23;20008;-85
2023/08/20 06:06:27;;;;;;;61.17;29.30;;;21.40;99.90;;;-144.05;98.54;57014.50;6197450;23;20032;-87
2023/08/20 06:08:53;;;;;;;80.95;39.58;;;18.10;99.90;;;-144.05;98.22;57006.00;6168212;23;20020;-84
2023/08/20 06:11:20;;;;;;;72.20;35.15;;;21.30;99.90;;;-144.05;98.51;57012.38;6163603;23;20039;-84
2023/08/20 06:13:46;;;;;;;71.00;34.53;;;;;;;-144.05;97.51;57018.75;6190133;23;20009;-83
2023/08/20 06:16:13;;;;;;;61.67;33.15;;;21.80;99.90;;;-144.05;97.75;57001.75;6189428;23;20057;-82
2023/08/20 06:18:38;;;;;;;68.10;34.17;;;21.40;99.90;;;-144.05;98.27;56999.63;6194656;23;20492;-83
2023/08/20 06:21:04;;;;;;;65.40;34.80;;;21.40;99.90;;;-144.05;97.59;57025.13;6173881;23;20005;-86
2023/08/20 06:23:31;;;;;;;54.58;29.23;;;;;;;-144.05;97.58;57027.25;6170873;23;20008;-85
2023/08/20 06:25:57;;;;;;;61.78;32.38;;;;;;;-144.05;95.33;57050.63;6174303;23;20005;-82
2023/08/20 06:28:23;;;;;;;52.00;29.42;;;20.20;99.90;;;-144.05;94.98;56976.28;6162996;23;20067;-82
2023/08/20 06:30:49;;;;;;;52.40;28.35;;;22.20;99.90;;;-144.05;94.47;57025.13;6159565;23;20009;-81
2023/08/20 06:33:15;;;;;;;48.65;26.58;;;;;;;-144.05;94.26;57048.50;6185499;23;20008;-81
2023/08/20 06:35:42;;;;;;;50.22;27.85;;;21.80;99.90;;;-144.05;93.64;57003.88;6183589;23;20438;-80
2023/08/20 06:38:08;;;;;;;53.70;27.77;;;22.20;99.90;;;-144.05;92.13;57012.38;6185165;23;20082;-83
2023/08/20 06:40:34;;;;;;;46.10;26.23;;;22.60;99.90;;;-144.05;89.90;57054.88;6158783;23;20012;-83
2023/08/20 06:43:00;;;;;;;44.65;25.40;;;22.30;99.90;;;-144.05;90.25;57025.13;6158824;23;20316;-81
2023/08/20 06:45:25;;;;;;;39.83;22.10;;;22.60;99.90;;;-144.05;89.66;57018.75;6185533;23;20008;-80
2023/08/20 06:47:51;;;;;;;38.90;22.55;;;23.20;99.90;;;-144.05;87.27;57050.63;6188659;23;20383;-82
2023/08/20 06:50:17;;;;;;;38.53;22.40;;;23.90;99.90;;;-144.05;84.97;57056.97;6162642;23;20009;-80
2023/08/20 06:52:43;;;;;;;40.70;23.38;;;24.10;99.90;;;-144.05;83.16;57061.22;6186939;23;20017;-82
2023/08/20 06:55:09;;;;;;;37.50;20.38;;;22.30;99.90;;;-144.05;81.94;57071.84;6186427;23;20013;-84
2023/08/20 06:57:35;;;;;;;32.97;18.90;;;;;;;-144.05;80.62;57061.22;6187099;23;20009;-81
2023/08/20 07:00:03;;;;;;;39.78;22.65;;;21.10;99.90;;;-144.05;78.32;57093.09;6183367;23;20009;-81
2023/08/20 07:02:29;;;;;;;32.47;21.67;;;23.10;99.90;;;-144.05;76.99;57071.84;6159459;23;20040;-80
2023/08/20 07:04:55;;;;;;;30.50;18.33;;;23.20;99.90;;;-144.05;75.94;57082.47;6186167;23;20005;-83
2023/08/20 07:07:22;;;;;;;38.80;23.85;;;22.00;99.90;;;-144.05;73.83;57095.22;6160986;23;20407;-81
2023/08/20 07:09:47;;;;;;;34.20;19.13;;;25.60;99.90;;;-144.05;74.02;57082.47;6187277;23;20036;-81
2023/08/20 07:12:14;;;;;;;34.90;21.65;;;23.70;99.90;;;-144.05;73.89;57073.97;6187426;23;20401;-83
2023/08/20 07:14:39;;;;;;;34.03;20.35;;;22.30;99.90;;;-144.05;72.61;57105.84;6187866;23;20035;-84
2023/08/20 07:17:05;;;;;;;38.25;22.33;;;22.20;99.90;;;-144.05;72.01;57105.84;6162272;23;20001;-83
2023/08/20 07:19:31;;;;;;;28.30;19.00;;;22.40;99.90;;;-144.05;71.47;57107.97;6162083;23;20005;-83
2023/08/20 07:21:57;;;;;;;31.83;21.33;;;24.40;99.90;;;-144.05;70.89;57114.34;6162352;23;20001;-82
2023/08/20 07:24:25;;;;;;;34.03;21.10;;;26.50;99.90;;;-144.05;70.56;57120.72;6188918;23;20316;-81
2023/08/20 07:26:52;;;;;;;29.60;18.50;;;24.60;99.90;;;-144.05;70.12;57139.81;6162952;23;20446;-83
2023/08/20 07:29:18;;;;;;;33.05;20.15;;;24.90;99.90;;;-144.05;68.55;57114.34;6188134;23;20031;-84
2023/08/20 07:31:44;;;;;;;33.63;22.55;;;25.00;99.90;;;-144.05;67.64;57127.09;6159413;23;20419;-89
2023/08/20 07:34:10;;;;;;;30.30;19.05;;;25.20;99.90;;;-144.05;68.04;57146.19;6186416;23;20012;-88
2023/08/20 07:36:36;;;;;;;35.35;20.60;;;;;;;-144.05;66.72;57154.69;6160211;23;20331;-87
2023/08/20 07:39:03;;;;;;;29.63;17.40;;;25.40;99.90;;;-144.05;66.39;57139.81;6184780;23;20007;-87
2023/08/20 07:41:30;;;;;;;39.42;23.58;;;;;;;-144.05;64.65;57146.19;6160180;23;20079;-87
2023/08/20 07:43:56;;;;;;;40.13;22.25;;;;;;;-144.05;64.13;57146.19;6159844;23;20020;-88
2023/08/20 07:46:23;;;;;;;28.13;19.55;;;25.80;99.90;;;-144.05;63.00;57158.94;6186902;23;20128;-86
2023/08/20 07:48:49;;;;;;;25.02;16.17;;;;;;;-144.05;62.84;57186.56;6160560;23;20083;-88
2023/08/20 07:51:15;;;;;;;22.58;16.08;;;26.10;99.90;;;-144.05;63.79;57184.44;6185456;23;20342;-88
2023/08/20 07:53:41;;;;;;;28.45;19.85;;;26.30;99.90;;;-144.05;62.55;57205.66;6160731;23;20012;-88
2023/08/20 07:56:08;;;;;;;26.90;18.85;;;;;;;-144.05;62.42;57197.19;6161577;23;20506;-88
2023/08/20 07:58:34;;;;;;;23.08;16.77;;;28.50;99.90;;;-144.05;61.99;57201.44;6186364;23;20009;-87
2023/08/20 08:01:00;;;;;;;25.42;16.98;;;28.80;99.90;;;-144.05;61.39;57207.78;6161680;23;20060;-89
2023/08/20 08:03:27;;;;;;;24.13;16.15;;;26.80;99.90;;;-144.05;60.92;57192.94;6161512;23;20013;-87
2023/08/20 08:05:56;;;;;;;23.48;16.92;;;;;;;-144.05;59.98;57222.66;6160936;23;20497;-88
2023/08/20 08:08:23;;;;;;;26.95;19.75;;;28.90;99.90;;;-144.05;58.83;57243.91;6161790;23;20001;-87
2023/08/20 08:10:53;;;;;;;25.13;16.98;;;27.10;99.90;;;-144.05;60.38;57205.66;6162172;23;20001;-88
2023/08/20 08:13:23;;;;;;;26.08;16.38;;;27.10;99.90;;;-144.05;59.77;57203.56;6188377;23;20072;-86
2023/08/20 08:15:51;;;;;;;25.88;17.70;;;27.30;99.90;;;-144.05;58.43;57209.91;6160671;23;20004;-87
2023/08/20 08:18:19;;;;;;;26.13;17.60;;;25.40;99.90;;;-144.05;57.30;57218.41;6160821;23;20009;-86
2023/08/20 08:20:46;;;;;;;22.58;15.65;;;28.90;99.90;;;-144.05;59.12;57195.06;6160625;23;20005;-88
2023/08/20 08:23:12;;;;;;;25.58;15.88;;;28.80;99.90;;;-144.05;58.73;57218.41;6160393;23;20016;-87
2023/08/20 08:25:38;;;;;;;18.98;13.95;;;29.30;99.90;;;-144.05;58.78;57237.53;6200009;23;20217;-86
2023/08/20 08:28:05;;;;;;;23.55;17.00;;;29.10;99.90;;;-144.05;57.30;57203.56;6169222;23;20040;-88
2023/08/20 08:30:31;;;;;;;24.13;15.90;;;28.60;99.90;;;-144.05;57.06;57216.28;6189363;23;20016;-88
2023/08/20 08:32:58;;;;;;;24.48;16.92;;;27.80;99.90;;;-144.05;57.89;57233.28;6164555;23;20013;-89
2023/08/20 08:35:24;;;;;;;26.38;17.08;;;27.20;99.90;;;-144.05;57.78;57226.91;6165666;23;20351;-86
2023/08/20 08:37:50;;;;;;;23.08;16.45;;;29.90;99.90;;;-144.05;57.34;57250.28;6163421;23;20307;-87
2023/08/20 08:40:16;;;;;;;22.85;14.57;;;29.90;99.90;;;-144.05;57.22;57220.53;6191573;23;20432;-87
2023/08/20 08:42:42;;;;;;;16.75;12.38;;;29.90;99.90;;;-144.05;56.69;57267.28;6163879;23;20015;-88
2023/08/20 08:45:10;;;;;;;23.02;16.25;;;28.30;99.90;;;-144.05;55.40;57273.66;6163294;23;20064;-89
2023/08/20 08:47:39;;;;;;;17.05;12.35;;;28.30;99.90;;;-144.05;54.42;57252.41;6162259;23;20016;-89
2023/08/20 08:50:08;;;;;;;17.48;13.25;;;28.40;99.90;;;-144.05;53.42;57314.00;6169322;23;20013;-88
2023/08/20 08:52:39;;;;;;;16.10;11.80;;;28.60;99.90;;;-144.05;52.29;57292.75;6168131;23;20010;-89
2023/08/20 08:55:08;;;;;;;17.48;11.90;;;28.70;99.90;;;-144.05;48.73;57297.00;6193256;23;20009;-88
2023/08/20 08:57:37;;;;;;;14.75;11.55;;;30.60;99.90;;;-144.05;48.17;57299.13;6164733;23;20009;-90
2023/08/20 09:00:04;;;;;;;15.88;10.73;;;28.50;99.90;;;-144.05;49.45;57282.16;6192169;23;20001;-89
2023/08/20 09:02:31;;;;;;;15.90;10.75;;;30.20;99.90;;;-144.05;50.52;57263.03;6166292;23;20020;-89
2023/08/20 09:04:58;;;;;;;14.23;10.57;;;28.50;99.90;;;-144.05;49.85;57294.88;6164738;23;20005;-89
2023/08/20 09:07:24;;;;;;;15.95;12.73;;;;;;;-144.05;48.93;57297.00;6165111;23;20009;-88
2023/08/20 09:09:50;;;;;;;18.23;12.35;;;30.50;99.90;;;-144.05;49.09;57294.88;6188896;23;20439;-88
2023/08/20 09:12:19;;;;;;;14.57;11.40;;;30.20;99.90;;;-144.05;49.54;57286.38;6169632;23;20009;-88
2023/08/20 09:14:52;;;;;;;13.38;10.63;;;28.40;99.90;;;-144.05;49.37;57273.66;6170843;23;20073;-88
2023/08/20 09:17:21;;;;;;;12.05;9.57;;;28.30;99.90;;;-144.05;49.15;57280.03;6171019;23;20017;-88
2023/08/20 09:19:47;;;;;;;12.98;9.70;;;;;;;-144.05;47.84;57275.78;6169947;23;20005;-87
2023/08/20 09:22:15;;;;;;;11.77;7.40;;;28.50;99.90;;;-144.05;47.11;57303.38;6169582;23;20039;-89
2023/08/20 09:24:46;;;;;;;8.90;6.80;;;30.10;99.90;;;-144.05;46.07;57326.75;6170894;23;20442;-87
2023/08/20 09:27:13;;;;;;;10.63;6.47;;;31.10;99.90;;;-144.05;44.03;57337.38;6171296;23;20092;-87
2023/08/20 09:29:57;;;;;;;9.48;6.10;;;29.50;99.90;;;-144.05;41.44;57354.38;6171772;23;20020;-87
2023/08/20 09:32:26;;;;;;;9.95;6.75;;;29.80;99.90;;;-144.05;42.22;57345.88;6171844;23;20153;-89
2023/08/20 09:34:56;;;;;;;10.65;6.00;;;31.20;99.90;;;-144.05;41.38;57367.13;6172163;23;20477;-89
2023/08/20 09:37:24;;;;;;;6.93;6.10;;;30.10;99.90;;;-144.05;40.78;57362.88;6172516;23;20013;-86
2023/08/20 09:39:51;;;;;;;9.02;6.82;;;31.70;99.90;;;-144.05;40.95;57392.59;6172093;23;20012;-91
2023/08/20 09:42:18;;;;;;;11.60;7.75;;;30.00;99.90;;;-144.05;40.74;57392.59;6172858;23;20001;-86
2023/08/20 09:44:46;;;;;;;11.23;7.80;;;30.00;99.90;;;-144.05;41.30;57358.63;6171435;23;20036;-87
2023/08/20 09:47:16;;;;;;;10.80;6.72;;;29.90;99.90;;;-144.05;42.86;57352.25;6172497;23;20005;-87
2023/08/20 09:49:48;;;;;;;13.27;7.75;;;30.90;99.90;;;-144.05;43.32;57280.03;6170854;23;20008;-87
2023/08/20 09:52:35;;;;;;;8.13;6.57;;;29.90;99.90;;;-144.05;45.99;57235.41;6171710;23;20347;-90
2023/08/20 09:55:09;;;;;;;9.40;7.60;;;27.80;99.90;;;-144.05;46.91;57237.53;6170960;23;20009;-87
2023/08/20 09:57:42;;;;;;;10.23;7.13;;;29.00;99.90;;;-144.05;48.13;57214.16;6170473;23;20013;-85
2023/08/20 10:00:11;;;;;;;7.38;6.40;;;27.10;99.90;;;-144.05;49.37;57222.66;6163482;23;20020;-87
2023/08/20 10:02:40;;;;;;;8.57;7.32;;;28.30;99.90;;;-144.05;50.37;57197.19;6162603;23;20012;-88
2023/08/20 10:05:08;;;;;;;8.75;7.05;;;;;;;-144.05;49.38;57188.69;6173276;23;20001;-86
2023/08/20 10:07:36;;;;;;;8.98;7.03;;;28.40;99.90;;;-144.05;48.83;57175.94;6205923;23;20028;-89
2023/08/20 10:10:11;;;;;;;8.15;6.88;;;28.90;99.90;;;-144.05;47.00;57233.28;6170853;23;20016;-89
2023/08/20 10:12:41;;;;;;;6.45;5.32;;;27.50;99.90;;;-144.05;45.64;57254.53;6169493;23;20001;-88
2023/08/20 10:15:13;;;;;;;9.65;6.03;;;30.30;99.90;;;-144.05;44.96;57288.50;6165663;23;20305;-84